createdAt,value
2022-12-19T00:01:39.409Z,7.93
2022-12-19T00:04:09.088Z,7.57
2022-12-19T00:06:38.089Z,7.38
2022-12-19T00:09:11.362Z,7.32
2022-12-19T00:11:38.938Z,8.70
2022-12-19T00:14:06.510Z,8.93
2022-12-19T00:16:33.516Z,8.30
2022-12-19T00:19:01.526Z,7.88
2022-12-19T00:21:31.204Z,7.88
2022-12-19T00:24:01.765Z,7.63
2022-12-19T00:26:31.120Z,7.45
2022-12-19T00:29:11.179Z,7.57
2022-12-19T00:31:40.870Z,6.80
2022-12-19T00:34:07.661Z,8.02
2022-12-19T00:36:34.858Z,7.57
2022-12-19T00:39:07.998Z,8.63
2022-12-19T00:41:37.595Z,7.80
2022-12-19T00:44:12.281Z,8.77
2022-12-19T00:46:43.912Z,10.02
2022-12-19T00:49:16.507Z,8.63
2022-12-19T00:51:43.145Z,8.35
2022-12-19T00:54:10.792Z,7.28
2022-12-19T00:56:38.608Z,9.88
2022-12-19T00:59:08.951Z,8.60
2022-12-19T01:01:38.287Z,7.50
2022-12-19T01:06:54.127Z,8.75
2022-12-19T01:09:24.884Z,8.65
2022-12-19T01:12:10.678Z,7.35
2022-12-19T01:14:37.444Z,8.70
2022-12-19T01:17:04.087Z,7.68
2022-12-19T01:19:30.748Z,7.38
2022-12-19T01:21:57.390Z,8.05
2022-12-19T01:24:24.643Z,8.63
2022-12-19T01:26:51.320Z,8.55
2022-12-19T01:29:18.074Z,7.75
2022-12-19T01:31:44.788Z,8.52
2022-12-19T01:34:11.643Z,8.52
2022-12-19T01:36:40.205Z,9.80
2022-12-19T01:39:08.194Z,10.15
2022-12-19T01:41:35.822Z,8.68
2022-12-19T01:44:08.351Z,9.07
2022-12-19T01:46:43.230Z,10.38
2022-12-19T01:49:26.242Z,10.25
2022-12-19T01:51:56.270Z,8.68
2022-12-19T01:54:34.639Z,10.82
2022-12-19T01:57:04.204Z,11.65
2022-12-19T01:59:52.131Z,9.73
2022-12-19T02:02:23.548Z,10.98
2022-12-19T02:07:20.365Z,8.80
2022-12-19T02:09:56.788Z,8.40
2022-12-19T02:12:28.031Z,9.05
2022-12-19T02:14:57.407Z,12.27
2022-12-19T02:17:52.815Z,11.18
2022-12-19T02:21:01.220Z,11.32
2022-12-19T02:23:58.268Z,11.55
2022-12-19T02:26:53.515Z,11.07
2022-12-19T02:29:35.639Z,10.43
2022-12-19T02:32:14.140Z,9.35
2022-12-19T02:34:50.479Z,9.05
2022-12-19T02:37:27.186Z,7.85
2022-12-19T02:40:14.958Z,7.75
2022-12-19T02:42:50.337Z,8.70
2022-12-19T02:45:28.469Z,9.80
2022-12-19T02:48:03.292Z,7.70
2022-12-19T02:50:44.704Z,8.77
2022-12-19T02:53:15.943Z,6.63
2022-12-19T02:56:21.411Z,8.35
2022-12-19T02:59:03.999Z,7.47
2022-12-19T03:02:14.057Z,8.48
2022-12-19T03:05:12.975Z,6.90
2022-12-19T03:07:52.726Z,10.07
2022-12-19T03:11:05.842Z,10.48
2022-12-19T03:13:38.354Z,9.55
2022-12-19T03:16:09.471Z,8.07
2022-12-19T03:18:36.589Z,9.25
2022-12-19T03:21:21.386Z,10.38
2022-12-19T03:23:50.516Z,10.07
2022-12-19T03:26:20.874Z,11.82
2022-12-19T03:29:09.598Z,10.55
2022-12-19T03:31:39.545Z,10.85
2022-12-19T03:34:21.296Z,9.30
2022-12-19T03:36:55.685Z,7.00
2022-12-19T03:39:25.160Z,7.30
2022-12-19T03:42:12.142Z,7.75
2022-12-19T03:44:42.497Z,9.10
2022-12-19T03:47:21.080Z,9.18
2022-12-19T03:49:48.670Z,8.45
2022-12-19T03:52:33.356Z,10.35
2022-12-19T03:55:43.208Z,12.13
2022-12-19T03:58:14.281Z,13.07
2022-12-19T04:03:13.849Z,14.45
2022-12-19T04:05:42.543Z,15.38
2022-12-19T04:08:12.043Z,14.90
2022-12-19T04:10:47.189Z,17.48
2022-12-19T04:13:19.969Z,14.48
2022-12-19T04:16:19.348Z,14.32
2022-12-19T04:18:51.310Z,13.98
2022-12-19T04:21:26.098Z,17.27
2022-12-19T04:23:58.063Z,14.77
2022-12-19T04:26:26.594Z,13.93
2022-12-19T04:28:56.656Z,12.65
2022-12-19T04:31:23.941Z,12.40
2022-12-19T04:33:50.737Z,14.65
2022-12-19T04:36:17.690Z,13.60
2022-12-19T04:38:44.367Z,12.20
2022-12-19T04:41:11.235Z,11.13
2022-12-19T04:43:38.972Z,12.43
2022-12-19T04:46:05.843Z,11.43
2022-12-19T04:48:38.209Z,10.75
2022-12-19T04:51:05.382Z,9.68
2022-12-19T04:53:32.633Z,9.90
2022-12-19T04:56:04.773Z,10.90
2022-12-19T04:58:31.709Z,10.38
2022-12-19T05:01:06.956Z,7.97
2022-12-19T05:03:34.433Z,7.65
2022-12-19T05:06:09.770Z,9.48
2022-12-19T05:08:38.622Z,7.82
2022-12-19T05:11:06.932Z,8.25
2022-12-19T05:13:33.728Z,8.32
2022-12-19T05:16:03.062Z,8.57
2022-12-19T05:18:31.084Z,7.43
2022-12-19T05:20:57.768Z,5.93
2022-12-19T05:23:24.893Z,6.35
2022-12-19T05:25:51.970Z,8.43
2022-12-19T05:28:19.423Z,8.00
2022-12-19T05:30:51.937Z,7.05
2022-12-19T05:33:19.115Z,9.50
2022-12-19T05:35:45.868Z,9.50
2022-12-19T05:38:12.634Z,7.28
2022-12-19T05:40:39.296Z,9.13
2022-12-19T05:43:09.569Z,9.63
2022-12-19T05:45:36.254Z,6.75
2022-12-19T05:48:03.505Z,8.98
2022-12-19T05:50:30.491Z,7.07
2022-12-19T05:53:08.692Z,6.00
2022-12-19T05:55:35.392Z,6.35
2022-12-19T05:58:02.138Z,5.57
2022-12-19T06:00:28.915Z,7.38
2022-12-19T06:02:55.688Z,6.28
2022-12-19T06:05:22.659Z,6.80
2022-12-19T06:07:50.574Z,6.78
2022-12-19T06:10:18.012Z,7.13
2022-12-19T06:12:44.637Z,6.18
2022-12-19T06:15:12.014Z,8.15
2022-12-19T06:17:38.675Z,7.53
2022-12-19T06:20:06.706Z,5.22
2022-12-19T06:22:37.836Z,6.32
2022-12-19T06:25:05.138Z,7.93
2022-12-19T06:27:33.838Z,7.30
2022-12-19T06:30:00.524Z,8.73
2022-12-19T06:32:27.177Z,8.65
2022-12-19T06:35:09.467Z,6.40
2022-12-19T06:37:39.329Z,7.28
2022-12-19T06:40:07.055Z,8.02
2022-12-19T06:42:33.723Z,5.78
2022-12-19T06:45:00.515Z,7.68
2022-12-19T06:47:27.192Z,6.25
2022-12-19T06:49:53.892Z,6.00
2022-12-19T06:52:20.699Z,5.78
2022-12-19T06:54:50.235Z,5.60
2022-12-19T06:57:16.986Z,6.72
2022-12-19T06:59:43.760Z,6.28
2022-12-19T07:02:13.502Z,8.35
2022-12-19T07:04:52.899Z,6.38
2022-12-19T07:07:19.840Z,8.25
2022-12-19T07:09:46.549Z,6.05
2022-12-19T07:12:13.274Z,6.18
2022-12-19T07:14:40.029Z,14.82
2022-12-19T07:17:06.877Z,5.55
2022-12-19T07:19:35.125Z,4.75
2022-12-19T07:22:03.569Z,5.10
2022-12-19T07:24:30.694Z,7.20
2022-12-19T07:26:57.874Z,7.15
2022-12-19T07:29:24.580Z,4.70
2022-12-19T07:31:51.538Z,7.68
2022-12-19T07:34:18.268Z,6.10
2022-12-19T07:36:45.012Z,5.50
2022-12-19T07:39:12.719Z,6.03
2022-12-19T07:41:41.349Z,5.13
2022-12-19T07:44:08.740Z,4.63
2022-12-19T07:46:35.638Z,5.78
2022-12-19T07:49:02.844Z,9.05
2022-12-19T07:51:29.721Z,7.13
2022-12-19T07:53:56.688Z,5.55
2022-12-19T07:56:23.465Z,4.75
2022-12-19T07:58:51.705Z,5.00
2022-12-19T08:01:18.950Z,6.22
2022-12-19T08:03:45.904Z,7.25
2022-12-19T08:06:12.560Z,5.25
2022-12-19T08:08:39.450Z,5.82
2022-12-19T08:11:17.558Z,5.22
2022-12-19T08:13:47.027Z,5.35
2022-12-19T08:16:14.952Z,6.93
2022-12-19T08:18:41.791Z,6.65
2022-12-19T08:21:09.336Z,7.13
2022-12-19T08:23:36.200Z,6.25
2022-12-19T08:26:06.094Z,6.28
2022-12-19T08:28:34.377Z,4.13
2022-12-19T08:31:07.214Z,5.20
2022-12-19T08:33:34.073Z,6.63
2022-12-19T08:36:08.178Z,5.47
2022-12-19T08:38:35.758Z,6.65
2022-12-19T08:41:02.615Z,7.57
2022-12-19T08:43:30.620Z,4.93
2022-12-19T08:45:57.559Z,4.18
2022-12-19T08:48:24.480Z,5.30
2022-12-19T08:50:59.445Z,6.20
2022-12-19T08:53:28.283Z,5.25
2022-12-19T08:55:56.842Z,6.40
2022-12-19T08:58:25.913Z,6.88
2022-12-19T09:00:57.644Z,6.15
2022-12-19T09:03:42.772Z,5.65
2022-12-19T09:06:18.645Z,6.32
2022-12-19T09:08:46.865Z,5.72
2022-12-19T09:11:16.080Z,5.00
2022-12-19T09:13:43.757Z,5.18
2022-12-19T09:16:13.598Z,4.72
2022-12-19T09:18:48.011Z,4.18
2022-12-19T09:21:15.649Z,5.15
2022-12-19T09:23:43.182Z,4.70
2022-12-19T09:26:13.299Z,3.95
2022-12-19T09:28:41.876Z,4.00
2022-12-19T09:31:13.950Z,4.13
2022-12-19T09:33:43.674Z,4.97
2022-12-19T09:36:14.044Z,4.57
2022-12-19T09:38:41.945Z,4.63
2022-12-19T09:41:40.971Z,4.53
2022-12-19T09:44:45.633Z,4.53
2022-12-19T09:47:17.640Z,4.90
2022-12-19T09:49:46.430Z,6.15
2022-12-19T09:52:33.204Z,4.85
2022-12-19T09:55:28.565Z,6.45
2022-12-19T09:58:12.300Z,4.00
2022-12-19T10:00:56.474Z,4.47
2022-12-19T10:03:41.607Z,4.78
2022-12-19T10:10:44.979Z,4.47
2022-12-19T10:12:47.994Z,3.50
2022-12-19T10:15:06.268Z,4.78
2022-12-19T10:17:45.196Z,4.40
2022-12-19T10:20:24.417Z,4.65
2022-12-19T10:23:29.326Z,4.13
2022-12-19T10:26:09.736Z,4.75
2022-12-19T10:28:37.623Z,4.80
2022-12-19T10:31:22.060Z,3.35
2022-12-19T10:34:00.064Z,4.15
2022-12-19T10:36:49.142Z,4.25
2022-12-19T10:39:30.089Z,4.20
2022-12-19T10:42:04.632Z,3.28
2022-12-19T10:44:36.472Z,3.08
2022-12-19T10:47:04.593Z,3.35
2022-12-19T10:49:31.733Z,4.05
2022-12-19T10:51:59.169Z,4.68
2022-12-19T10:54:37.812Z,4.53
2022-12-19T10:57:25.556Z,3.80
2022-12-19T11:00:00.991Z,2.72
2022-12-19T11:02:40.075Z,4.03
2022-12-19T11:05:29.494Z,4.32
2022-12-19T11:08:27.398Z,4.72
2022-12-19T11:13:09.538Z,3.65
2022-12-19T11:18:22.304Z,3.35
2022-12-19T11:23:19.380Z,4.00
2022-12-19T11:29:33.479Z,5.22
2022-12-19T11:29:39.075Z,3.70
2022-12-19T11:30:44.320Z,6.32
2022-12-19T11:30:46.773Z,4.57
2022-12-19T11:34:18.328Z,4.25
2022-12-19T11:36:58.217Z,5.57
2022-12-19T11:39:44.635Z,5.55
2022-12-19T11:42:17.074Z,4.38
2022-12-19T11:44:51.144Z,5.05
2022-12-19T11:47:43.225Z,3.45
2022-12-19T11:50:15.574Z,5.78
2022-12-19T11:53:11.519Z,6.05
2022-12-19T11:55:42.546Z,5.13
2022-12-19T11:58:13.247Z,6.93
2022-12-19T12:01:21.357Z,5.32
2022-12-19T12:04:02.779Z,6.45
2022-12-19T12:06:35.373Z,6.38
2022-12-19T12:12:21.854Z,6.05
2022-12-19T12:18:13.937Z,6.18
2022-12-19T12:27:35.090Z,6.07
2022-12-19T12:31:17.720Z,6.78
2022-12-19T12:31:23.833Z,6.05
2022-12-19T12:31:32.537Z,7.30
2022-12-19T12:31:49.210Z,5.45
2022-12-19T12:32:03.194Z,5.15
2022-12-19T12:35:34.977Z,5.32
2022-12-19T12:39:46.773Z,7.80
2022-12-19T12:42:23.796Z,8.13
2022-12-19T12:44:54.896Z,8.60
2022-12-19T12:47:27.599Z,7.13
2022-12-19T12:49:56.251Z,9.38
2022-12-19T12:52:40.459Z,5.68
2022-12-19T12:55:23.930Z,7.40
2022-12-19T12:57:51.082Z,5.70
2022-12-19T13:00:28.721Z,6.22
2022-12-19T13:03:19.371Z,6.32
2022-12-19T13:05:46.094Z,6.65
2022-12-19T13:08:37.390Z,7.65
2022-12-19T13:11:11.693Z,6.88
2022-12-19T13:13:55.790Z,5.55
2022-12-19T13:16:45.610Z,5.43
2022-12-19T13:19:28.708Z,8.60
2022-12-19T13:22:05.091Z,7.60
2022-12-19T13:24:41.881Z,8.15
2022-12-19T13:27:21.014Z,9.32
2022-12-19T13:29:56.826Z,8.18
2022-12-19T13:32:24.124Z,8.48
2022-12-19T13:34:58.638Z,7.57
2022-12-19T13:39:57.352Z,7.53
2022-12-19T13:40:44.429Z,6.18
2022-12-19T13:43:35.815Z,7.35
2022-12-19T13:46:20.886Z,8.35
2022-12-19T13:48:51.351Z,7.60
2022-12-19T13:51:18.163Z,9.43
2022-12-19T13:53:45.003Z,7.13
2022-12-19T13:56:19.788Z,7.18
2022-12-19T13:58:54.685Z,7.53
2022-12-19T14:01:29.221Z,7.63
2022-12-19T14:03:59.058Z,7.85
2022-12-19T14:06:46.926Z,8.10
2022-12-19T14:11:34.236Z,7.18
2022-12-19T14:14:00.336Z,8.52
2022-12-19T14:15:39.920Z,7.78
2022-12-19T14:18:45.125Z,7.38
2022-12-19T14:22:08.918Z,7.50
2022-12-19T14:24:14.414Z,7.57
2022-12-19T14:28:19.528Z,6.63
2022-12-19T14:30:27.441Z,8.27
2022-12-19T14:33:45.635Z,7.57
2022-12-19T14:36:07.516Z,7.55
2022-12-19T14:39:23.329Z,7.68
2022-12-19T14:41:46.942Z,5.27
2022-12-19T14:51:42.964Z,7.15
2022-12-19T14:52:10.951Z,7.88
2022-12-19T14:54:02.814Z,7.38
2022-12-19T14:54:48.108Z,7.53
2022-12-19T14:56:16.097Z,7.90
2022-12-19T14:58:55.530Z,6.95
2022-12-19T15:01:29.970Z,9.45
2022-12-19T15:04:48.775Z,7.35
2022-12-19T15:07:06.901Z,6.45
2022-12-19T15:11:00.842Z,7.70
2022-12-19T15:14:54.392Z,8.10
2022-12-19T15:16:31.520Z,9.40
2022-12-19T15:19:00.781Z,7.40
2022-12-19T15:21:32.055Z,9.07
2022-12-19T15:26:31.290Z,7.82
2022-12-19T15:28:58.678Z,7.95
2022-12-19T15:31:41.633Z,8.82
2022-12-19T15:34:35.504Z,8.88
2022-12-19T15:37:05.033Z,9.73
2022-12-19T15:39:31.932Z,7.20
2022-12-19T15:42:00.479Z,7.22
2022-12-19T15:44:39.583Z,7.68
2022-12-19T15:47:15.898Z,7.30
2022-12-19T15:49:42.769Z,7.45
2022-12-19T15:52:19.435Z,6.35
2022-12-19T15:54:48.386Z,9.38
2022-12-19T15:57:30.674Z,6.28
2022-12-19T16:00:01.682Z,7.97
2022-12-19T16:03:04.520Z,5.82
2022-12-19T16:05:23.555Z,8.27
2022-12-19T16:07:50.948Z,8.55
2022-12-19T16:10:18.220Z,8.02
2022-12-19T16:12:50.600Z,7.82
2022-12-19T16:15:29.597Z,9.25
2022-12-19T16:17:58.198Z,8.32
2022-12-19T16:20:28.032Z,7.50
2022-12-19T16:22:55.348Z,8.90
2022-12-19T16:25:24.941Z,7.82
2022-12-19T16:27:58.359Z,7.90
2022-12-19T16:30:31.566Z,7.03
2022-12-19T16:32:58.887Z,7.72
2022-12-19T16:36:02.281Z,6.10
2022-12-19T16:38:16.620Z,7.40
2022-12-19T16:40:43.556Z,8.45
2022-12-19T16:43:28.365Z,8.23
2022-12-19T16:46:00.572Z,7.72
2022-12-19T16:48:34.082Z,10.05
2022-12-19T16:51:01.398Z,7.10
2022-12-19T16:53:28.091Z,8.15
2022-12-19T16:55:56.821Z,9.25
2022-12-19T16:58:26.403Z,8.65
2022-12-19T17:00:55.199Z,6.55
2022-12-19T17:03:36.107Z,7.72
2022-12-19T17:06:03.694Z,6.60
2022-12-19T17:08:30.341Z,7.30
2022-12-19T17:10:57.013Z,8.35
2022-12-19T17:13:24.287Z,8.65
2022-12-19T17:15:56.741Z,8.73
2022-12-19T17:18:34.377Z,8.25
2022-12-19T17:21:01.696Z,6.45
2022-12-19T17:23:30.720Z,6.70
2022-12-19T17:25:59.410Z,8.77
2022-12-19T17:28:28.133Z,8.25
2022-12-19T17:30:58.801Z,12.27
2022-12-19T17:33:33.157Z,9.90
2022-12-19T17:36:05.072Z,7.63
2022-12-19T17:38:31.852Z,8.57
2022-12-19T17:40:59.059Z,9.32
2022-12-19T17:43:25.896Z,8.77
2022-12-19T17:45:52.839Z,9.65
2022-12-19T17:48:24.159Z,10.70
2022-12-19T17:50:51.350Z,12.70
2022-12-19T17:53:18.516Z,8.45
2022-12-19T17:55:48.602Z,8.10
2022-12-19T17:58:15.515Z,8.52
2022-12-19T18:00:43.254Z,8.60
2022-12-19T18:03:19.823Z,12.32
2022-12-19T18:05:47.802Z,9.18
2022-12-19T18:08:29.254Z,8.00
2022-12-19T18:13:25.357Z,9.25
2022-12-19T18:15:56.157Z,8.02
2022-12-19T18:18:35.319Z,7.72
2022-12-19T18:21:03.088Z,8.48
2022-12-19T18:23:32.987Z,8.82
2022-12-19T18:26:02.300Z,9.65
2022-12-19T18:28:29.675Z,7.88
2022-12-19T18:31:03.032Z,7.80
2022-12-19T18:33:37.815Z,11.82
2022-12-19T18:36:07.471Z,8.55
2022-12-19T18:38:34.448Z,8.40
2022-12-19T18:41:01.552Z,8.50
2022-12-19T18:43:31.083Z,9.32
2022-12-19T18:45:58.295Z,8.45
2022-12-19T18:48:31.425Z,6.93
2022-12-19T18:50:59.418Z,6.88
2022-12-19T18:53:35.164Z,9.05
2022-12-19T18:56:05.062Z,5.07
2022-12-19T18:58:32.409Z,4.78
2022-12-19T19:01:00.972Z,3.75
2022-12-19T19:03:34.276Z,5.25
2022-12-19T19:06:01.395Z,3.30
2022-12-19T19:08:30.768Z,4.47
2022-12-19T19:11:18.227Z,3.30
2022-12-19T19:13:45.132Z,2.10
2022-12-19T19:16:24.663Z,2.13
2022-12-19T19:18:56.650Z,1.27
2022-12-19T19:21:26.633Z,1.33
2022-12-19T19:24:04.162Z,1.70
2022-12-19T19:26:30.891Z,1.92
2022-12-19T19:28:58.433Z,2.17
2022-12-19T19:31:27.958Z,2.03
2022-12-19T19:34:11.423Z,1.83
2022-12-19T19:36:40.981Z,1.63
2022-12-19T19:39:07.748Z,1.40
2022-12-19T19:41:34.501Z,1.55
2022-12-19T19:44:01.410Z,1.10
2022-12-19T19:46:28.661Z,0.95
2022-12-19T19:48:55.772Z,1.02
2022-12-19T19:51:22.455Z,0.80
2022-12-19T19:53:49.271Z,1.17
2022-12-19T19:56:16.147Z,0.90
2022-12-19T19:58:42.859Z,1.33
2022-12-19T20:01:11.567Z,1.45
2022-12-19T20:03:40.125Z,0.60
2022-12-19T20:06:08.198Z,0.50
2022-12-19T20:08:39.808Z,0.40
2022-12-19T20:11:08.448Z,0.32
2022-12-19T20:13:35.241Z,0.45
2022-12-19T20:16:10.466Z,0.40
2022-12-19T20:18:38.771Z,0.30
2022-12-19T20:21:12.762Z,0.90
2022-12-19T20:23:42.559Z,0.45
2022-12-19T20:26:11.492Z,0.50
2022-12-19T20:28:43.931Z,0.30
2022-12-19T20:31:14.984Z,0.50
2022-12-19T20:33:41.786Z,0.40
2022-12-19T20:36:11.236Z,0.40
2022-12-19T20:38:38.827Z,0.50
2022-12-19T20:41:06.120Z,2.05
2022-12-19T20:43:33.755Z,0.85
2022-12-19T20:46:06.190Z,0.73
2022-12-19T20:48:33.189Z,0.35
2022-12-19T20:51:01.341Z,1.00
2022-12-19T20:53:28.258Z,0.30
2022-12-19T20:55:58.316Z,0.43
2022-12-19T20:58:27.194Z,0.40
2022-12-19T21:01:08.017Z,0.20
2022-12-19T21:03:36.292Z,0.30
2022-12-19T21:06:03.567Z,0.40
2022-12-19T21:08:30.426Z,0.70
2022-12-19T21:10:57.267Z,0.45
2022-12-19T21:13:24.136Z,0.85
2022-12-19T21:15:59.275Z,0.30
2022-12-19T21:18:26.869Z,0.45
2022-12-19T21:20:54.546Z,0.50
2022-12-19T21:23:22.730Z,0.38
2022-12-19T21:25:49.637Z,3.47
2022-12-19T21:28:16.396Z,1.52
2022-12-19T21:30:43.126Z,0.80
2022-12-19T21:33:09.914Z,0.50
2022-12-19T21:35:38.114Z,0.40
2022-12-19T21:38:04.896Z,0.50
2022-12-19T21:40:31.614Z,0.60
2022-12-19T21:42:58.331Z,0.35
2022-12-19T21:45:25.048Z,1.15
2022-12-19T21:47:51.816Z,0.50
2022-12-19T21:50:18.673Z,0.35
2022-12-19T21:52:45.370Z,0.40
2022-12-19T21:55:12.107Z,0.95
2022-12-19T21:57:40.370Z,0.70
2022-12-19T22:00:09.981Z,0.70
2022-12-19T22:02:37.235Z,0.95
2022-12-19T22:05:04.716Z,0.30
2022-12-19T22:07:35.512Z,0.50
2022-12-19T22:10:02.348Z,0.50
2022-12-19T22:12:29.179Z,0.57
2022-12-19T22:14:55.938Z,0.60
2022-12-19T22:17:22.942Z,1.15
2022-12-19T22:19:49.685Z,6.05
2022-12-19T22:22:16.383Z,0.80
2022-12-19T22:24:43.081Z,0.60
2022-12-19T22:27:09.872Z,0.60
2022-12-19T22:29:37.957Z,0.50
2022-12-19T22:32:05.286Z,0.80
2022-12-19T22:34:32.201Z,0.55
2022-12-19T22:36:58.982Z,0.70
2022-12-19T22:39:25.714Z,2.35
2022-12-19T22:41:52.457Z,0.73
2022-12-19T22:44:22.103Z,0.60
2022-12-19T22:46:49.639Z,0.90
2022-12-19T22:49:19.342Z,0.70
2022-12-19T22:51:46.179Z,0.82
2022-12-19T22:54:13.652Z,0.75
2022-12-19T22:56:41.007Z,0.55
2022-12-19T22:59:10.187Z,0.82
2022-12-19T23:01:39.913Z,1.05
2022-12-19T23:04:08.808Z,0.88
2022-12-19T23:06:37.180Z,0.77
2022-12-19T23:09:06.230Z,1.00
2022-12-19T23:11:39.278Z,1.40
2022-12-19T23:14:08.285Z,0.75
2022-12-19T23:16:37.410Z,1.60
2022-12-19T23:19:05.551Z,1.67
2022-12-19T23:21:32.241Z,1.00
2022-12-19T23:23:58.959Z,1.40
2022-12-19T23:26:28.767Z,0.95
2022-12-19T23:28:58.391Z,0.68
2022-12-19T23:31:26.488Z,1.00
2022-12-19T23:33:53.843Z,0.80
2022-12-19T23:36:45.287Z,1.55
2022-12-19T23:39:08.175Z,0.90
2022-12-19T23:41:34.823Z,0.80
2022-12-19T23:44:01.777Z,0.80
2022-12-19T23:46:28.879Z,0.88
2022-12-19T23:48:56.335Z,1.38
2022-12-19T23:51:25.263Z,0.90
2022-12-19T23:53:53.473Z,0.98
2022-12-19T23:56:26.054Z,0.93
2022-12-19T23:58:53.275Z,1.20
